< Typhoon 200220 2002 Season Typhoon 200222 >
Typhoon 200221 (HIGOS)
General InformationTrack Information on Google MapsDetailed Wind InformationList of All Images || NewsDisaster Info.ResourceGoogle EarthGE AnimationAtom FeedGeoJSON
Detalied Best Track (Time Zone = UTC)
Year Month Day Hour Lat. Long. Pressure (hPa) Wind (kt) Class Image Chart
2002 9 26 00 15.6 157.4 1008 0 2 Image Chart
2002 9 26 06 15.6 155.8 1004 0 2 Image Chart
2002 9 26 12 15.7 155.3 1004 0 2 Image Chart
2002 9 26 18 15.6 154.5 1000 40 3 Image Chart
2002 9 27 00 16.5 152.2 996 45 3 Image Chart
2002 9 27 06 16.5 150.9 990 50 4 Image Chart
2002 9 27 12 16.9 149.2 985 50 4 Image Chart
2002 9 27 18 17.5 147.5 980 55 4 Image Chart
2002 9 28 00 17.9 145.8 975 60 4 Image Chart
2002 9 28 06 18.7 144.2 970 60 4 Image Chart
2002 9 28 12 19.1 142.1 965 65 5 Image Chart
2002 9 28 18 19.5 140.4 950 75 5 Image Chart
2002 9 29 00 19.9 138.8 940 85 5 Image Chart
2002 9 29 06 20.4 137.5 935 90 5 Image Chart
2002 9 29 12 20.9 136.7 930 95 5 Image Chart
2002 9 29 18 21.5 136.0 930 95 5 Image Chart
2002 9 30 00 22.5 135.9 930 95 5 Image Chart
2002 9 30 06 23.7 135.8 930 95 5 Image Chart
2002 9 30 12 25.2 136.1 940 85 5 Image Chart
2002 9 30 18 27.2 136.6 945 80 5 Image Chart
2002 10 1 00 29.6 137.5 945 80 5 Image Chart
2002 10 1 03 31.0 138.1 945 80 5 Image Chart
2002 10 1 06 32.9 138.3 950 80 5 Image Chart
2002 10 1 09 34.4 139.0 955 75 5 Image Chart
2002 10 1 11 35.3 139.6 960 70 5 Image Chart
2002 10 1 12 35.9 140.0 965 65 5 Image Chart
2002 10 1 15 38.2 140.9 970 65 5 Image Chart
2002 10 1 18 40.5 141.3 975 60 4 Image Chart
2002 10 1 21 42.6 141.7 980 55 4 Image Chart
2002 10 2 00 43.9 141.1 980 50 4 Image Chart
2002 10 2 06 46.2 141.1 980 0 6 Image Chart
2002 10 2 12 47.8 141.6 980 0 6 Image Chart
2002 10 2 18 49.9 142.1 984 0 6 Image Chart
2002 10 3 00 51.2 144.5 984 0 6 Image Chart
2002 10 3 06 51.7 146.9 988 0 6 Image Chart
2002 10 3 12 52.0 150.6 992 0 6 Image Chart
2002 10 3 18 51.9 153.0 996 0 6 Image Chart
2002 10 4 00 51.9 155.2 1000 0 6 Image Chart
Japan Meteorological Agency Best Track Data | Correction Date : 2006-01-18
< Typhoon 200220 2002 Season Typhoon 200222 >

Help